sensor_id;sensor_type;location;lat;lon;timestamp;temperature;humidity
72128;DHT22;60000;51.030;7.024;2022-11-14T00:01:56;2.76;90.61
72128;DHT22;60000;51.030;7.024;2022-11-14T00:04:21;2.73;90.79
72128;DHT22;60000;51.030;7.024;2022-11-14T00:06:47;2.72;90.68
72128;DHT22;60000;51.030;7.024;2022-11-14T00:09:12;2.73;90.99
72128;DHT22;60000;51.030;7.024;2022-11-14T00:11:37;2.74;90.85
72128;DHT22;60000;51.030;7.024;2022-11-14T00:14:03;2.72;90.78
72128;DHT22;60000;51.030;7.024;2022-11-14T00:16:28;2.68;90.77
72128;DHT22;60000;51.030;7.024;2022-11-14T00:18:53;2.66;90.68
72128;DHT22;60000;51.030;7.024;2022-11-14T00:21:19;2.70;91.17
72128;DHT22;60000;51.030;7.024;2022-11-14T00:23:44;2.68;90.99
72128;DHT22;60000;51.030;7.024;2022-11-14T00:26:09;2.72;90.99
72128;DHT22;60000;51.030;7.024;2022-11-14T00:28:34;2.73;91.05
72128;DHT22;60000;51.030;7.024;2022-11-14T00:47:49;2.53;90.36
72128;DHT22;60000;51.030;7.024;2022-11-14T00:50:15;2.50;90.30
72128;DHT22;60000;51.030;7.024;2022-11-14T00:52:41;2.46;90.28
72128;DHT22;60000;51.030;7.024;2022-11-14T00:55:06;2.45;90.26
72128;DHT22;60000;51.030;7.024;2022-11-14T00:57:32;2.39;90.15
72128;DHT22;60000;51.030;7.024;2022-11-14T00:59:57;2.35;90.09
72128;DHT22;60000;51.030;7.024;2022-11-14T01:02:22;2.33;90.17
72128;DHT22;60000;51.030;7.024;2022-11-14T01:04:48;2.33;90.45
72128;DHT22;60000;51.030;7.024;2022-11-14T01:07:13;2.36;90.77
72128;DHT22;60000;51.030;7.024;2022-11-14T01:09:38;2.37;90.84
72128;DHT22;60000;51.030;7.024;2022-11-14T01:12:04;2.35;90.69
72128;DHT22;60000;51.030;7.024;2022-11-14T01:14:29;2.29;90.41
72128;DHT22;60000;51.030;7.024;2022-11-14T01:16:54;2.36;91.24
72128;DHT22;60000;51.030;7.024;2022-11-14T01:19:20;2.32;90.65
72128;DHT22;60000;51.030;7.024;2022-11-14T01:21:45;2.30;90.75
72128;DHT22;60000;51.030;7.024;2022-11-14T01:24:10;2.25;90.55
72128;DHT22;60000;51.030;7.024;2022-11-14T01:43:33;2.04;90.65
72128;DHT22;60000;51.030;7.024;2022-11-14T01:48:51;1.95;90.32
72128;DHT22;60000;51.030;7.024;2022-11-14T01:51:38;1.89;90.39
72128;DHT22;60000;51.030;7.024;2022-11-14T01:54:08;1.88;90.64
72128;DHT22;60000;51.030;7.024;2022-11-14T01:56:40;1.85;90.56
72128;DHT22;60000;51.030;7.024;2022-11-14T01:59:12;1.88;91.04
72128;DHT22;60000;51.030;7.024;2022-11-14T02:01:45;1.89;90.98
72128;DHT22;60000;51.030;7.024;2022-11-14T02:04:16;1.95;91.40
72128;DHT22;60000;51.030;7.024;2022-11-14T02:06:43;1.95;91.18
72128;DHT22;60000;51.030;7.024;2022-11-14T02:09:09;1.95;90.95
72128;DHT22;60000;51.030;7.024;2022-11-14T02:11:37;1.91;90.62
72128;DHT22;60000;51.030;7.024;2022-11-14T02:40:40;1.70;90.69
72128;DHT22;60000;51.030;7.024;2022-11-14T02:43:05;1.70;90.90
72128;DHT22;60000;51.030;7.024;2022-11-14T02:45:31;1.68;90.94
72128;DHT22;60000;51.030;7.024;2022-11-14T02:47:56;1.68;90.96
72128;DHT22;60000;51.030;7.024;2022-11-14T02:50:21;1.71;91.03
72128;DHT22;60000;51.030;7.024;2022-11-14T02:52:46;1.70;90.88
72128;DHT22;60000;51.030;7.024;2022-11-14T02:55:12;1.68;90.86
72128;DHT22;60000;51.030;7.024;2022-11-14T02:57:37;1.65;90.66
72128;DHT22;60000;51.030;7.024;2022-11-14T03:00:04;1.63;90.80
72128;DHT22;60000;51.030;7.024;2022-11-14T03:02:29;1.63;90.84
72128;DHT22;60000;51.030;7.024;2022-11-14T03:04:54;1.63;90.70
72128;DHT22;60000;51.030;7.024;2022-11-14T03:07:20;1.60;90.87
72128;DHT22;60000;51.030;7.024;2022-11-14T03:09:45;1.57;90.85
72128;DHT22;60000;51.030;7.024;2022-11-14T03:12:10;1.60;90.95
72128;DHT22;60000;51.030;7.024;2022-11-14T03:14:36;1.56;90.97
72128;DHT22;60000;51.030;7.024;2022-11-14T03:43:55;1.56;91.15
72128;DHT22;60000;51.030;7.024;2022-11-14T03:46:21;1.57;91.14
72128;DHT22;60000;51.030;7.024;2022-11-14T03:48:46;1.54;91.14
72128;DHT22;60000;51.030;7.024;2022-11-14T03:51:11;1.57;91.06
72128;DHT22;60000;51.030;7.024;2022-11-14T03:53:37;1.54;91.03
72128;DHT22;60000;51.030;7.024;2022-11-14T03:56:02;1.60;91.27
72128;DHT22;60000;51.030;7.024;2022-11-14T03:58:28;1.58;91.36
72128;DHT22;60000;51.030;7.024;2022-11-14T04:00:53;1.63;91.23
72128;DHT22;60000;51.030;7.024;2022-11-14T04:03:20;1.63;91.33
72128;DHT22;60000;51.030;7.024;2022-11-14T04:05:46;1.65;91.25
72128;DHT22;60000;51.030;7.024;2022-11-14T04:08:11;1.65;91.28
72128;DHT22;60000;51.030;7.024;2022-11-14T04:10:36;1.65;91.13
72128;DHT22;60000;51.030;7.024;2022-11-14T04:13:03;1.67;91.04
72128;DHT22;60000;51.030;7.024;2022-11-14T04:15:28;1.67;90.85
72128;DHT22;60000;51.030;7.024;2022-11-14T04:17:54;1.67;90.81
72128;DHT22;60000;51.030;7.024;2022-11-14T04:20:19;1.65;90.68
72128;DHT22;60000;51.030;7.024;2022-11-14T04:22:45;1.64;90.69
72128;DHT22;60000;51.030;7.024;2022-11-14T04:25:10;1.64;90.64
72128;DHT22;60000;51.030;7.024;2022-11-14T04:27:35;1.61;90.61
72128;DHT22;60000;51.030;7.024;2022-11-14T04:30:01;1.63;90.71
72128;DHT22;60000;51.030;7.024;2022-11-14T04:32:26;1.63;90.71
72128;DHT22;60000;51.030;7.024;2022-11-14T04:34:51;1.61;90.73
72128;DHT22;60000;51.030;7.024;2022-11-14T04:37:17;1.60;90.66
72128;DHT22;60000;51.030;7.024;2022-11-14T04:39:42;1.57;90.60
72128;DHT22;60000;51.030;7.024;2022-11-14T04:42:08;1.57;90.48
72128;DHT22;60000;51.030;7.024;2022-11-14T04:44:33;1.57;90.83
72128;DHT22;60000;51.030;7.024;2022-11-14T04:46:58;1.54;90.56
72128;DHT22;60000;51.030;7.024;2022-11-14T04:49:24;1.51;90.55
72128;DHT22;60000;51.030;7.024;2022-11-14T04:51:49;1.48;90.45
72128;DHT22;60000;51.030;7.024;2022-11-14T04:54:14;1.42;90.33
72128;DHT22;60000;51.030;7.024;2022-11-14T04:56:40;1.46;91.21
72128;DHT22;60000;51.030;7.024;2022-11-14T04:59:05;1.47;91.02
72128;DHT22;60000;51.030;7.024;2022-11-14T05:01:31;1.48;91.12
72128;DHT22;60000;51.030;7.024;2022-11-14T05:03:56;1.46;90.94
72128;DHT22;60000;51.030;7.024;2022-11-14T05:06:21;1.47;90.76
72128;DHT22;60000;51.030;7.024;2022-11-14T05:08:47;1.44;90.71
72128;DHT22;60000;51.030;7.024;2022-11-14T05:11:17;1.42;90.74
72128;DHT22;60000;51.030;7.024;2022-11-14T05:13:43;1.40;90.72
72128;DHT22;60000;51.030;7.024;2022-11-14T05:16:09;1.44;91.03
72128;DHT22;60000;51.030;7.024;2022-11-14T05:18:34;1.40;90.78
72128;DHT22;60000;51.030;7.024;2022-11-14T05:21:00;1.36;90.87
72128;DHT22;60000;51.030;7.024;2022-11-14T05:23:26;1.43;91.45
72128;DHT22;60000;51.030;7.024;2022-11-14T05:26:05;1.44;91.20
72128;DHT22;60000;51.030;7.024;2022-11-14T05:28:31;1.44;91.27
72128;DHT22;60000;51.030;7.024;2022-11-14T05:31:08;1.47;91.41
72128;DHT22;60000;51.030;7.024;2022-11-14T05:33:34;1.46;91.25
72128;DHT22;60000;51.030;7.024;2022-11-14T05:36:04;1.44;91.04
72128;DHT22;60000;51.030;7.024;2022-11-14T05:38:29;1.43;91.26
72128;DHT22;60000;51.030;7.024;2022-11-14T05:40:55;1.39;91.02
72128;DHT22;60000;51.030;7.024;2022-11-14T05:43:20;1.35;90.82
72128;DHT22;60000;51.030;7.024;2022-11-14T05:45:45;1.30;90.67
72128;DHT22;60000;51.030;7.024;2022-11-14T05:48:11;1.23;90.66
72128;DHT22;60000;51.030;7.024;2022-11-14T05:50:36;1.19;90.69
72128;DHT22;60000;51.030;7.024;2022-11-14T05:53:01;1.16;90.59
72128;DHT22;60000;51.030;7.024;2022-11-14T05:55:26;1.12;90.84
72128;DHT22;60000;51.030;7.024;2022-11-14T05:57:52;1.07;90.75
72128;DHT22;60000;51.030;7.024;2022-11-14T06:00:17;1.05;90.76
72128;DHT22;60000;51.030;7.024;2022-11-14T06:02:42;1.00;90.83
72128;DHT22;60000;51.030;7.024;2022-11-14T06:05:10;0.96;90.89
72128;DHT22;60000;51.030;7.024;2022-11-14T06:07:35;0.91;90.96
72128;DHT22;60000;51.030;7.024;2022-11-14T06:10:01;0.89;90.92
72128;DHT22;60000;51.030;7.024;2022-11-14T06:12:26;0.85;90.85
72128;DHT22;60000;51.030;7.024;2022-11-14T06:14:51;0.85;90.95
72128;DHT22;60000;51.030;7.024;2022-11-14T06:17:17;0.81;90.93
72128;DHT22;60000;51.030;7.024;2022-11-14T06:19:42;0.79;90.97
72128;DHT22;60000;51.030;7.024;2022-11-14T06:22:07;0.79;91.10
72128;DHT22;60000;51.030;7.024;2022-11-14T06:24:33;0.76;91.11
72128;DHT22;60000;51.030;7.024;2022-11-14T06:26:58;0.78;91.31
72128;DHT22;60000;51.030;7.024;2022-11-14T06:29:24;0.74;91.20
72128;DHT22;60000;51.030;7.024;2022-11-14T06:31:49;0.75;91.33
72128;DHT22;60000;51.030;7.024;2022-11-14T06:34:14;0.72;91.43
72128;DHT22;60000;51.030;7.024;2022-11-14T06:36:40;0.74;91.37
72128;DHT22;60000;51.030;7.024;2022-11-14T06:39:05;0.71;91.40
72128;DHT22;60000;51.030;7.024;2022-11-14T06:41:30;0.71;91.25
72128;DHT22;60000;51.030;7.024;2022-11-14T06:43:56;0.67;91.42
72128;DHT22;60000;51.030;7.024;2022-11-14T06:46:21;0.67;91.54
72128;DHT22;60000;51.030;7.024;2022-11-14T06:48:48;0.67;91.59
72128;DHT22;60000;51.030;7.024;2022-11-14T06:51:15;0.67;91.60
72128;DHT22;60000;51.030;7.024;2022-11-14T06:53:41;0.64;91.69
72128;DHT22;60000;51.030;7.024;2022-11-14T06:56:10;0.65;91.75
72128;DHT22;60000;51.030;7.024;2022-11-14T06:58:39;0.62;91.89
72128;DHT22;60000;51.030;7.024;2022-11-14T07:03:30;0.74;92.38
72128;DHT22;60000;51.030;7.024;2022-11-14T07:06:02;0.75;92.63
72128;DHT22;60000;51.030;7.024;2022-11-14T07:08:29;0.81;92.95
72128;DHT22;60000;51.030;7.024;2022-11-14T07:11:04;0.91;93.08
72128;DHT22;60000;51.030;7.024;2022-11-14T07:13:31;0.96;93.26
72128;DHT22;60000;51.030;7.024;2022-11-14T07:15:56;1.07;93.47
72128;DHT22;60000;51.030;7.024;2022-11-14T07:18:22;1.16;93.71
72128;DHT22;60000;51.030;7.024;2022-11-14T07:20:47;1.25;93.69
72128;DHT22;60000;51.030;7.024;2022-11-14T07:23:13;1.35;93.89
72128;DHT22;60000;51.030;7.024;2022-11-14T07:25:38;1.43;93.96
72128;DHT22;60000;51.030;7.024;2022-11-14T07:28:04;1.51;94.08
72128;DHT22;60000;51.030;7.024;2022-11-14T07:30:29;1.67;94.43
72128;DHT22;60000;51.030;7.024;2022-11-14T07:32:55;1.78;94.48
72128;DHT22;60000;51.030;7.024;2022-11-14T07:35:21;1.89;94.54
72128;DHT22;60000;51.030;7.024;2022-11-14T07:37:47;2.06;94.52
72128;DHT22;60000;51.030;7.024;2022-11-14T07:40:12;2.16;94.54
72128;DHT22;60000;51.030;7.024;2022-11-14T07:42:37;2.26;94.45
72128;DHT22;60000;51.030;7.024;2022-11-14T07:45:03;2.40;94.72
72128;DHT22;60000;51.030;7.024;2022-11-14T07:47:28;2.52;94.57
72128;DHT22;60000;51.030;7.024;2022-11-14T07:49:54;2.76;95.18
72128;DHT22;60000;51.030;7.024;2022-11-14T07:52:19;2.95;95.33
72128;DHT22;60000;51.030;7.024;2022-11-14T07:54:44;3.25;95.56
72128;DHT22;60000;51.030;7.024;2022-11-14T07:57:10;3.52;95.34
72128;DHT22;60000;51.030;7.024;2022-11-14T07:59:35;3.70;94.59
72128;DHT22;60000;51.030;7.024;2022-11-14T08:02:00;3.84;94.39
72128;DHT22;60000;51.030;7.024;2022-11-14T08:04:26;4.01;94.30
72128;DHT22;60000;51.030;7.024;2022-11-14T08:06:51;4.13;93.67
72128;DHT22;60000;51.030;7.024;2022-11-14T08:09:16;4.22;93.27
72128;DHT22;60000;51.030;7.024;2022-11-14T08:11:42;4.30;93.01
72128;DHT22;60000;51.030;7.024;2022-11-14T08:14:13;4.37;92.98
72128;DHT22;60000;51.030;7.024;2022-11-14T08:16:39;4.55;92.88
72128;DHT22;60000;51.030;7.024;2022-11-14T08:19:04;4.66;92.44
72128;DHT22;60000;51.030;7.024;2022-11-14T08:21:29;4.82;92.30
72128;DHT22;60000;51.030;7.024;2022-11-14T08:23:55;5.03;91.79
72128;DHT22;60000;51.030;7.024;2022-11-14T08:26:20;5.19;91.16
72128;DHT22;60000;51.030;7.024;2022-11-14T08:28:45;5.33;90.62
72128;DHT22;60000;51.030;7.024;2022-11-14T08:31:12;5.45;90.37
72128;DHT22;60000;51.030;7.024;2022-11-14T08:33:40;5.54;89.99
72128;DHT22;60000;51.030;7.024;2022-11-14T08:36:06;5.59;89.56
72128;DHT22;60000;51.030;7.024;2022-11-14T08:38:32;5.68;89.33
72128;DHT22;60000;51.030;7.024;2022-11-14T08:41:01;5.75;89.20
72128;DHT22;60000;51.030;7.024;2022-11-14T08:43:27;5.81;88.76
72128;DHT22;60000;51.030;7.024;2022-11-14T08:45:56;5.89;88.39
72128;DHT22;60000;51.030;7.024;2022-11-14T08:48:22;5.99;87.79
72128;DHT22;60000;51.030;7.024;2022-11-14T08:50:47;6.07;87.62
72128;DHT22;60000;51.030;7.024;2022-11-14T08:53:12;6.17;87.21
72128;DHT22;60000;51.030;7.024;2022-11-14T08:55:45;6.23;87.03
72128;DHT22;60000;51.030;7.024;2022-11-14T08:58:11;6.33;86.37
72128;DHT22;60000;51.030;7.024;2022-11-14T09:00:36;6.34;86.39
72128;DHT22;60000;51.030;7.024;2022-11-14T09:03:07;6.48;85.89
72128;DHT22;60000;51.030;7.024;2022-11-14T09:05:33;6.50;85.73
72128;DHT22;60000;51.030;7.024;2022-11-14T09:07:58;6.51;85.50
72128;DHT22;60000;51.030;7.024;2022-11-14T09:10:24;6.54;85.32
72128;DHT22;60000;51.030;7.024;2022-11-14T09:12:56;6.58;85.25
72128;DHT22;60000;51.030;7.024;2022-11-14T09:15:22;6.63;85.14
72128;DHT22;60000;51.030;7.024;2022-11-14T09:17:47;6.70;84.98
72128;DHT22;60000;51.030;7.024;2022-11-14T09:20:13;6.71;84.93
72128;DHT22;60000;51.030;7.024;2022-11-14T09:22:39;6.74;84.96
72128;DHT22;60000;51.030;7.024;2022-11-14T09:25:04;6.78;84.86
72128;DHT22;60000;51.030;7.024;2022-11-14T09:27:30;6.82;84.90
72128;DHT22;60000;51.030;7.024;2022-11-14T09:29:55;6.85;84.59
72128;DHT22;60000;51.030;7.024;2022-11-14T09:32:20;6.91;84.58
72128;DHT22;60000;51.030;7.024;2022-11-14T09:34:46;6.95;84.50
72128;DHT22;60000;51.030;7.024;2022-11-14T09:37:12;6.98;84.18
72128;DHT22;60000;51.030;7.024;2022-11-14T09:39:37;7.03;84.02
72128;DHT22;60000;51.030;7.024;2022-11-14T09:44:48;7.11;84.06
72128;DHT22;60000;51.030;7.024;2022-11-14T09:47:22;7.16;84.03
72128;DHT22;60000;51.030;7.024;2022-11-14T09:49:50;7.19;84.09
72128;DHT22;60000;51.030;7.024;2022-11-14T09:52:37;7.26;83.77
72128;DHT22;60000;51.030;7.024;2022-11-14T09:55:13;7.26;83.42
72128;DHT22;60000;51.030;7.024;2022-11-14T09:57:43;7.27;83.54
72128;DHT22;60000;51.030;7.024;2022-11-14T10:00:19;7.32;83.50
72128;DHT22;60000;51.030;7.024;2022-11-14T10:11:31;7.54;83.02
72128;DHT22;60000;51.030;7.024;2022-11-14T10:17:02;7.63;82.66
72128;DHT22;60000;51.030;7.024;2022-11-14T10:26:16;7.77;82.45
72128;DHT22;60000;51.030;7.024;2022-11-14T10:31:58;7.94;81.75
72128;DHT22;60000;51.030;7.024;2022-11-14T10:47:42;8.18;80.86
72128;DHT22;60000;51.030;7.024;2022-11-14T10:50:19;8.22;80.79
72128;DHT22;60000;51.030;7.024;2022-11-14T10:52:46;8.25;80.73
72128;DHT22;60000;51.030;7.024;2022-11-14T10:55:16;8.29;80.93
72128;DHT22;60000;51.030;7.024;2022-11-14T10:57:44;8.39;80.53
72128;DHT22;60000;51.030;7.024;2022-11-14T11:00:14;8.46;80.04
72128;DHT22;60000;51.030;7.024;2022-11-14T11:02:56;8.56;79.92
72128;DHT22;60000;51.030;7.024;2022-11-14T11:05:24;8.60;79.89
72128;DHT22;60000;51.030;7.024;2022-11-14T11:07:52;8.67;79.71
72128;DHT22;60000;51.030;7.024;2022-11-14T11:10:40;8.76;78.78
72128;DHT22;60000;51.030;7.024;2022-11-14T11:13:53;8.83;78.80
72128;DHT22;60000;51.030;7.024;2022-11-14T11:16:24;8.87;78.80
72128;DHT22;60000;51.030;7.024;2022-11-14T11:18:50;8.90;78.42
72128;DHT22;60000;51.030;7.024;2022-11-14T11:21:18;8.91;78.36
72128;DHT22;60000;51.030;7.024;2022-11-14T11:23:54;8.97;77.91
72128;DHT22;60000;51.030;7.024;2022-11-14T11:26:31;9.00;77.68
72128;DHT22;60000;51.030;7.024;2022-11-14T11:29:02;9.04;77.50
72128;DHT22;60000;51.030;7.024;2022-11-14T11:31:48;9.00;77.34
72128;DHT22;60000;51.030;7.024;2022-11-14T11:34:14;9.08;77.22
72128;DHT22;60000;51.030;7.024;2022-11-14T11:36:42;9.18;77.27
72128;DHT22;60000;51.030;7.024;2022-11-14T11:39:21;9.27;76.74
72128;DHT22;60000;51.030;7.024;2022-11-14T11:41:48;9.30;76.56
72128;DHT22;60000;51.030;7.024;2022-11-14T11:44:15;9.36;76.34
72128;DHT22;60000;51.030;7.024;2022-11-14T11:46:51;9.42;76.29
72128;DHT22;60000;51.030;7.024;2022-11-14T11:52:08;9.58;75.69
72128;DHT22;60000;51.030;7.024;2022-11-14T11:54:52;9.58;75.74
72128;DHT22;60000;51.030;7.024;2022-11-14T11:57:23;9.59;76.03
72128;DHT22;60000;51.030;7.024;2022-11-14T12:00:02;9.60;75.99
72128;DHT22;60000;51.030;7.024;2022-11-14T12:02:28;9.60;76.26
72128;DHT22;60000;51.030;7.024;2022-11-14T12:04:55;9.62;76.05
72128;DHT22;60000;51.030;7.024;2022-11-14T12:10:26;9.72;76.37
72128;DHT22;60000;51.030;7.024;2022-11-14T12:13:05;9.76;76.33
72128;DHT22;60000;51.030;7.024;2022-11-14T12:21:30;9.89;75.54
72128;DHT22;60000;51.030;7.024;2022-11-14T12:31:43;9.94;75.13
72128;DHT22;60000;51.030;7.024;2022-11-14T12:34:24;9.86;75.16
72128;DHT22;60000;51.030;7.024;2022-11-14T12:36:51;9.83;75.18
72128;DHT22;60000;51.030;7.024;2022-11-14T12:39:23;9.79;75.61
72128;DHT22;60000;51.030;7.024;2022-11-14T12:41:49;9.70;75.64
72128;DHT22;60000;51.030;7.024;2022-11-14T12:44:18;9.69;75.81
72128;DHT22;60000;51.030;7.024;2022-11-14T12:49:59;9.70;76.09
72128;DHT22;60000;51.030;7.024;2022-11-14T12:58:17;9.68;76.32
72128;DHT22;60000;51.030;7.024;2022-11-14T13:06:36;9.58;75.94
72128;DHT22;60000;51.030;7.024;2022-11-14T13:11:49;9.58;75.88
72128;DHT22;60000;51.030;7.024;2022-11-14T13:14:51;9.53;75.93
72128;DHT22;60000;51.030;7.024;2022-11-14T13:17:35;9.56;75.79
72128;DHT22;60000;51.030;7.024;2022-11-14T13:20:33;9.52;76.33
72128;DHT22;60000;51.030;7.024;2022-11-14T13:33:45;9.55;76.46
72128;DHT22;60000;51.030;7.024;2022-11-14T13:39:16;9.51;76.77
72128;DHT22;60000;51.030;7.024;2022-11-14T13:50:11;9.52;76.55
72128;DHT22;60000;51.030;7.024;2022-11-14T13:52:43;9.56;76.39
72128;DHT22;60000;51.030;7.024;2022-11-14T13:55:19;9.53;76.61
72128;DHT22;60000;51.030;7.024;2022-11-14T14:03:39;9.43;77.03
72128;DHT22;60000;51.030;7.024;2022-11-14T14:08:49;9.45;77.03
72128;DHT22;60000;51.030;7.024;2022-11-14T14:14:04;9.45;77.30
72128;DHT22;60000;51.030;7.024;2022-11-14T14:16:48;9.42;77.20
72128;DHT22;60000;51.030;7.024;2022-11-14T14:19:49;9.41;77.35
72128;DHT22;60000;51.030;7.024;2022-11-14T14:30:29;9.35;77.57
72128;DHT22;60000;51.030;7.024;2022-11-14T14:35:34;9.36;77.61
72128;DHT22;60000;51.030;7.024;2022-11-14T14:38:00;9.36;77.76
72128;DHT22;60000;51.030;7.024;2022-11-14T14:40:31;9.36;77.72
72128;DHT22;60000;51.030;7.024;2022-11-14T14:43:00;9.35;77.76
72128;DHT22;60000;51.030;7.024;2022-11-14T14:45:28;9.32;77.93
72128;DHT22;60000;51.030;7.024;2022-11-14T14:48:03;9.28;78.02
72128;DHT22;60000;51.030;7.024;2022-11-14T14:50:41;9.30;78.08
72128;DHT22;60000;51.030;7.024;2022-11-14T14:53:18;9.31;78.12
72128;DHT22;60000;51.030;7.024;2022-11-14T14:55:51;9.32;78.04
72128;DHT22;60000;51.030;7.024;2022-11-14T15:03:20;9.27;78.44
72128;DHT22;60000;51.030;7.024;2022-11-14T15:05:46;9.27;78.34
72128;DHT22;60000;51.030;7.024;2022-11-14T15:08:14;9.25;78.40
72128;DHT22;60000;51.030;7.024;2022-11-14T15:10:40;9.25;78.48
72128;DHT22;60000;51.030;7.024;2022-11-14T15:13:09;9.18;78.71
72128;DHT22;60000;51.030;7.024;2022-11-14T15:15:35;9.15;78.84
72128;DHT22;60000;51.030;7.024;2022-11-14T15:18:04;9.14;79.04
72128;DHT22;60000;51.030;7.024;2022-11-14T15:20:31;9.12;79.06
72128;DHT22;60000;51.030;7.024;2022-11-14T15:23:18;9.14;79.22
72128;DHT22;60000;51.030;7.024;2022-11-14T15:25:44;9.05;79.31
72128;DHT22;60000;51.030;7.024;2022-11-14T15:28:18;9.04;79.45
72128;DHT22;60000;51.030;7.024;2022-11-14T15:31:18;9.03;79.68
72128;DHT22;60000;51.030;7.024;2022-11-14T15:33:44;9.01;79.73
72128;DHT22;60000;51.030;7.024;2022-11-14T15:36:15;9.03;79.67
72128;DHT22;60000;51.030;7.024;2022-11-14T15:39:04;9.04;79.68
72128;DHT22;60000;51.030;7.024;2022-11-14T15:41:45;9.01;79.63
72128;DHT22;60000;51.030;7.024;2022-11-14T15:44:30;9.00;79.55
72128;DHT22;60000;51.030;7.024;2022-11-14T15:46:56;9.01;79.49
72128;DHT22;60000;51.030;7.024;2022-11-14T15:49:24;8.97;79.62
72128;DHT22;60000;51.030;7.024;2022-11-14T15:51:55;8.96;79.68
72128;DHT22;60000;51.030;7.024;2022-11-14T15:54:26;9.01;79.58
72128;DHT22;60000;51.030;7.024;2022-11-14T15:56:54;9.00;79.48
72128;DHT22;60000;51.030;7.024;2022-11-14T15:59:20;9.00;79.40
72128;DHT22;60000;51.030;7.024;2022-11-14T16:01:49;8.97;79.45
72128;DHT22;60000;51.030;7.024;2022-11-14T16:04:19;8.96;79.51
72128;DHT22;60000;51.030;7.024;2022-11-14T16:06:45;8.99;79.52
72128;DHT22;60000;51.030;7.024;2022-11-14T16:09:17;8.96;79.53
72128;DHT22;60000;51.030;7.024;2022-11-14T16:11:43;8.97;79.65
72128;DHT22;60000;51.030;7.024;2022-11-14T16:14:08;8.94;79.67
72128;DHT22;60000;51.030;7.024;2022-11-14T16:16:34;8.92;79.79
72128;DHT22;60000;51.030;7.024;2022-11-14T16:18:59;8.92;80.01
72128;DHT22;60000;51.030;7.024;2022-11-14T16:21:24;8.91;79.88
72128;DHT22;60000;51.030;7.024;2022-11-14T16:23:49;8.97;79.93
72128;DHT22;60000;51.030;7.024;2022-11-14T16:26:15;8.96;79.93
72128;DHT22;60000;51.030;7.024;2022-11-14T16:28:40;8.90;80.05
72128;DHT22;60000;51.030;7.024;2022-11-14T16:31:12;8.94;80.03
72128;DHT22;60000;51.030;7.024;2022-11-14T16:33:37;8.94;80.08
72128;DHT22;60000;51.030;7.024;2022-11-14T16:36:03;8.92;80.28
72128;DHT22;60000;51.030;7.024;2022-11-14T16:38:28;8.92;80.32
72128;DHT22;60000;51.030;7.024;2022-11-14T16:40:53;8.94;80.44
72128;DHT22;60000;51.030;7.024;2022-11-14T16:43:19;8.92;80.50
72128;DHT22;60000;51.030;7.024;2022-11-14T16:45:45;8.90;80.61
72128;DHT22;60000;51.030;7.024;2022-11-14T16:48:10;8.88;80.74
72128;DHT22;60000;51.030;7.024;2022-11-14T16:50:36;8.92;80.76
72128;DHT22;60000;51.030;7.024;2022-11-14T16:53:02;8.97;80.70
72128;DHT22;60000;51.030;7.024;2022-11-14T16:55:27;8.96;80.75
72128;DHT22;60000;51.030;7.024;2022-11-14T16:57:52;8.91;80.87
72128;DHT22;60000;51.030;7.024;2022-11-14T17:00:18;8.91;81.02
72128;DHT22;60000;51.030;7.024;2022-11-14T17:02:44;8.91;81.11
72128;DHT22;60000;51.030;7.024;2022-11-14T17:05:11;8.91;81.10
72128;DHT22;60000;51.030;7.024;2022-11-14T17:07:36;8.92;81.21
72128;DHT22;60000;51.030;7.024;2022-11-14T17:10:02;8.96;81.39
72128;DHT22;60000;51.030;7.024;2022-11-14T17:12:28;8.92;81.50
72128;DHT22;60000;51.030;7.024;2022-11-14T17:14:53;8.94;81.46
72128;DHT22;60000;51.030;7.024;2022-11-14T17:17:19;8.92;81.50
72128;DHT22;60000;51.030;7.024;2022-11-14T17:19:44;8.91;81.63
72128;DHT22;60000;51.030;7.024;2022-11-14T17:22:14;8.94;81.57
72128;DHT22;60000;51.030;7.024;2022-11-14T17:24:39;9.04;81.55
72128;DHT22;60000;51.030;7.024;2022-11-14T17:27:13;9.01;81.67
72128;DHT22;60000;51.030;7.024;2022-11-14T17:29:39;8.91;81.91
72128;DHT22;60000;51.030;7.024;2022-11-14T17:32:04;8.91;82.08
72128;DHT22;60000;51.030;7.024;2022-11-14T17:34:30;8.90;82.13
72128;DHT22;60000;51.030;7.024;2022-11-14T17:36:56;8.88;82.22
72128;DHT22;60000;51.030;7.024;2022-11-14T17:39:21;8.88;82.31
72128;DHT22;60000;51.030;7.024;2022-11-14T17:41:47;8.84;82.47
72128;DHT22;60000;51.030;7.024;2022-11-14T17:44:12;8.81;82.61
72128;DHT22;60000;51.030;7.024;2022-11-14T17:46:37;8.81;82.72
72128;DHT22;60000;51.030;7.024;2022-11-14T17:49:02;8.79;82.82
72128;DHT22;60000;51.030;7.024;2022-11-14T17:51:28;8.79;82.85
72128;DHT22;60000;51.030;7.024;2022-11-14T17:53:53;8.83;82.83
72128;DHT22;60000;51.030;7.024;2022-11-14T17:56:22;8.81;82.88
72128;DHT22;60000;51.030;7.024;2022-11-14T17:58:49;8.83;82.86
72128;DHT22;60000;51.030;7.024;2022-11-14T18:01:18;8.83;82.91
72128;DHT22;60000;51.030;7.024;2022-11-14T18:03:43;8.79;82.90
72128;DHT22;60000;51.030;7.024;2022-11-14T18:06:11;8.76;83.00
72128;DHT22;60000;51.030;7.024;2022-11-14T18:08:37;8.81;83.16
72128;DHT22;60000;51.030;7.024;2022-11-14T18:11:04;8.80;83.00
72128;DHT22;60000;51.030;7.024;2022-11-14T18:13:30;8.76;83.06
72128;DHT22;60000;51.030;7.024;2022-11-14T18:16:03;8.77;83.06
72128;DHT22;60000;51.030;7.024;2022-11-14T18:18:33;8.74;83.03
72128;DHT22;60000;51.030;7.024;2022-11-14T18:21:07;8.71;83.13
72128;DHT22;60000;51.030;7.024;2022-11-14T18:23:33;8.71;83.06
72128;DHT22;60000;51.030;7.024;2022-11-14T18:25:59;8.69;82.99
72128;DHT22;60000;51.030;7.024;2022-11-14T18:28:25;8.70;83.16
72128;DHT22;60000;51.030;7.024;2022-11-14T18:30:54;8.66;82.92
72128;DHT22;60000;51.030;7.024;2022-11-14T18:33:20;8.66;82.74
72128;DHT22;60000;51.030;7.024;2022-11-14T18:35:56;8.64;82.34
72128;DHT22;60000;51.030;7.024;2022-11-14T18:38:22;8.63;81.91
72128;DHT22;60000;51.030;7.024;2022-11-14T18:40:47;8.56;81.92
72128;DHT22;60000;51.030;7.024;2022-11-14T18:43:14;8.46;82.13
72128;DHT22;60000;51.030;7.024;2022-11-14T18:45:39;8.39;82.10
72128;DHT22;60000;51.030;7.024;2022-11-14T18:48:05;8.39;82.27
72128;DHT22;60000;51.030;7.024;2022-11-14T18:50:30;8.38;82.29
72128;DHT22;60000;51.030;7.024;2022-11-14T18:52:55;8.35;82.20
72128;DHT22;60000;51.030;7.024;2022-11-14T18:55:21;8.32;82.56
72128;DHT22;60000;51.030;7.024;2022-11-14T18:57:46;8.26;82.59
72128;DHT22;60000;51.030;7.024;2022-11-14T19:00:12;8.24;82.63
72128;DHT22;60000;51.030;7.024;2022-11-14T19:02:37;8.19;82.92
72128;DHT22;60000;51.030;7.024;2022-11-14T19:05:03;8.18;82.94
72128;DHT22;60000;51.030;7.024;2022-11-14T19:07:28;8.21;82.78
72128;DHT22;60000;51.030;7.024;2022-11-14T19:09:54;8.19;82.86
72128;DHT22;60000;51.030;7.024;2022-11-14T19:12:19;8.22;82.80
72128;DHT22;60000;51.030;7.024;2022-11-14T19:14:48;8.15;82.80
72128;DHT22;60000;51.030;7.024;2022-11-14T19:17:14;8.15;82.96
72128;DHT22;60000;51.030;7.024;2022-11-14T19:19:46;8.08;82.96
72128;DHT22;60000;51.030;7.024;2022-11-14T19:22:11;8.09;83.02
72128;DHT22;60000;51.030;7.024;2022-11-14T19:24:36;8.06;83.11
72128;DHT22;60000;51.030;7.024;2022-11-14T19:27:07;8.06;83.05